Time;durP1;ratioP1;P1;durP2;ratioP2;P2;SDS_P1;SDS_P2;PMS_P1;PMS_P2;Temp;Humidity;BMP_temperature;BMP_pressure;BME280_temperature;BME280_humidity;BME280_pressure;Samples;Min_cycle;Max_cycle;Signal;HPM_P1;HPM_P2
2022/07/18 00:01:30;;;;;;;4.55;2.58;;;;;;;33.71;30.92;99480.53;5114573;28;20024;-84
2022/07/18 00:03:55;;;;;;;3.92;2.63;;;;;;;33.68;31.11;99486.31;5098543;28;20101;-86
2022/07/18 00:06:21;;;;;;;4.00;2.72;;;;;;;33.66;31.00;99480.25;5080788;28;20462;-85
2022/07/18 00:08:47;;;;;;;3.30;2.50;;;;;;;33.66;31.01;99482.97;5081145;28;20028;-85
2022/07/18 00:11:12;;;;;;;3.22;2.33;;;;;;;33.64;30.98;99479.56;5099327;28;20024;-84
2022/07/18 00:13:38;;;;;;;3.13;2.42;;;;;;;33.62;31.25;99484.31;5080432;28;20019;-86
2022/07/18 00:16:04;;;;;;;3.67;2.63;;;;;;;33.62;31.04;99481.63;5081367;28;20077;-85
2022/07/18 00:18:29;;;;;;;4.43;2.60;;;;;;;33.59;31.14;99482.81;5114811;28;20363;-84
2022/07/18 00:20:55;;;;;;;2.75;2.30;;;;;;;33.58;31.25;99489.25;5100115;28;20024;-85
2022/07/18 00:23:21;;;;;;;3.45;2.50;;;;;;;33.56;31.17;99487.75;5084074;28;20028;-88
2022/07/18 00:25:46;;;;;;;3.22;2.70;;;;;;;33.54;31.40;99489.78;5104121;28;20078;-86
2022/07/18 00:28:12;;;;;;;3.97;2.70;;;;;;;33.54;31.22;99478.97;5087369;28;20534;-85
2022/07/18 00:30:38;;;;;;;3.50;2.67;;;;;;;33.52;31.34;99480.97;5103663;28;20331;-87
2022/07/18 00:33:04;;;;;;;3.30;2.40;;;;;;;33.51;31.40;99479.31;5082468;28;20353;-86
2022/07/18 00:35:30;;;;;;;3.95;2.63;;;;;;;33.48;31.44;99475.91;5103065;28;20024;-87
2022/07/18 00:37:55;;;;;;;3.47;2.40;;;;;;;33.46;31.65;99477.09;5086499;28;20024;-84
2022/07/18 00:40:21;;;;;;;4.45;2.88;;;;;;;33.44;31.51;99479.97;5099757;28;20055;-85
2022/07/18 00:42:48;;;;;;;3.80;2.90;;;;;;;33.43;31.65;99467.47;5097187;28;20052;-84
2022/07/18 00:45:13;;;;;;;2.80;2.33;;;;;;;33.42;31.69;99476.63;5098000;28;20127;-86
2022/07/18 00:47:39;;;;;;;3.47;2.60;;;;;;;33.41;31.64;99480.31;5080030;28;20469;-85
2022/07/18 00:50:06;;;;;;;4.63;2.72;;;;;;;33.39;31.86;99471.53;5098197;28;20059;-86
2022/07/18 00:52:33;;;;;;;3.13;2.40;;;;;;;33.38;31.51;99479.81;5080678;28;20414;-87
2022/07/18 00:54:59;;;;;;;3.50;2.53;;;;;;;33.36;31.80;99466.50;5099299;28;20043;-88
2022/07/18 00:57:26;;;;;;;3.17;2.72;;;;;;;33.35;31.78;99465.66;5084007;28;20129;-87
2022/07/18 01:02:36;;;;;;;4.18;2.88;;;;;;;33.31;31.80;99458.91;5097173;28;20085;-84
2022/07/18 01:05:02;;;;;;;3.40;2.30;;;;;;;33.28;31.82;99463.81;5097163;28;20024;-85
2022/07/18 01:07:27;;;;;;;4.38;3.00;;;;;;;33.28;31.79;99461.13;5079011;28;20039;-85
2022/07/18 01:09:53;;;;;;;3.47;2.42;;;;;;;33.28;31.86;99461.13;5097200;28;20024;-84
2022/07/18 01:12:19;;;;;;;4.47;2.72;;;;;;;33.26;31.81;99460.47;5079041;28;20415;-85
2022/07/18 01:14:46;;;;;;;4.72;2.90;;;;;;;33.24;31.69;99454.38;5078976;28;20035;-85
2022/07/18 01:17:17;;;;;;;3.85;2.70;;;;;;;33.21;31.96;99442.91;5112937;28;20426;-84
2022/07/18 01:19:43;;;;;;;4.15;3.10;;;;;;;33.21;31.98;99448.31;5079542;28;20039;-84
2022/07/18 01:22:10;;;;;;;3.67;2.47;;;;;;;33.22;32.16;99449.97;5096861;28;20084;-86
2022/07/18 01:24:37;;;;;;;3.92;3.10;;;;;;;33.19;32.11;99450.34;5084200;28;20095;-86
2022/07/18 01:27:03;;;;;;;3.83;2.75;;;;;;;33.17;32.03;99446.13;5099806;28;20034;-85
2022/07/18 01:29:28;;;;;;;3.50;2.45;;;;;;;33.15;32.12;99448.16;5080689;28;20126;-85
2022/07/18 01:31:54;;;;;;;4.03;2.80;;;;;;;33.17;31.97;99449.66;5097890;28;20032;-84
2022/07/18 01:34:23;;;;;;;4.13;3.05;;;;;;;33.15;32.01;99438.19;5097341;28;20031;-84
2022/07/18 01:36:49;;;;;;;3.70;2.80;;;;;;;33.13;32.29;99440.25;5112647;28;20031;-84
2022/07/18 01:39:14;;;;;;;4.32;2.78;;;;;;;33.11;32.27;99442.25;5096631;28;20027;-87
2022/07/18 01:41:40;;;;;;;4.28;2.67;;;;;;;33.15;32.22;99440.91;5096349;28;20044;-84
2022/07/18 01:44:06;;;;;;;4.45;2.90;;;;;;;33.14;32.18;99441.06;5096514;28;20343;-86
2022/07/18 01:46:32;;;;;;;3.60;2.70;;;;;;;33.11;32.33;99442.25;5112340;28;20487;-85
2022/07/18 01:48:58;;;;;;;3.72;2.35;;;;;;;33.11;32.31;99444.94;5078466;28;20055;-84
2022/07/18 01:51:23;;;;;;;3.20;2.53;;;;;;;33.11;32.29;99447.66;5095673;28;20465;-84
2022/07/18 01:53:58;;;;;;;3.92;2.40;;;;;;;33.11;32.25;99449.53;5095958;28;20115;-83
2022/07/18 01:56:23;;;;;;;3.45;2.45;;;;;;;33.07;32.02;99446.34;5096108;28;20032;-85
2022/07/18 01:58:49;;;;;;;3.15;2.45;;;;;;;33.08;32.14;99448.84;5095919;28;20077;-85
2022/07/18 02:01:15;;;;;;;3.65;2.80;;;;;;;33.05;32.10;99449.22;5096017;28;20036;-86
2022/07/18 02:03:40;;;;;;;3.50;2.47;;;;;;;33.07;32.36;99454.44;5095810;28;20036;-84
2022/07/18 02:06:06;;;;;;;3.13;2.45;;;;;;;33.04;32.33;99446.69;5096022;28;20035;-83
2022/07/18 02:08:31;;;;;;;3.70;2.50;;;;;;;33.04;32.38;99449.38;5096115;28;20024;-83
2022/07/18 02:10:57;;;;;;;3.03;2.60;;;;;;;33.01;32.46;99453.28;5112154;28;20034;-85
2022/07/18 02:13:22;;;;;;;4.03;2.42;;;;;;;32.99;32.19;99454.47;5082719;28;20058;-86
2022/07/18 02:15:48;;;;;;;3.25;2.47;;;;;;;32.96;32.53;99455.66;5082223;28;20441;-87
2022/07/18 02:18:14;;;;;;;3.15;2.40;;;;;;;32.95;32.27;99449.38;5101874;28;20035;-84
2022/07/18 02:20:39;;;;;;;3.95;2.55;;;;;;;32.93;32.55;99454.09;5102003;28;20468;-86
2022/07/18 02:23:07;;;;;;;3.67;2.75;;;;;;;32.94;32.50;99446.84;5113368;28;20032;-86
2022/07/18 02:25:33;;;;;;;3.10;2.28;;;;;;;32.91;32.44;99442.63;5097911;28;20034;-84
2022/07/18 02:27:59;;;;;;;4.65;2.90;;;;;;;32.89;32.36;99433.88;5098751;28;20451;-88
2022/07/18 02:30:24;;;;;;;3.33;2.40;;;;;;;32.89;32.56;99443.81;5113405;28;20028;-88
2022/07/18 02:32:50;;;;;;;4.15;2.88;;;;;;;32.89;32.79;99444.69;5115695;28;20040;-87
2022/07/18 02:35:15;;;;;;;2.60;2.20;;;;;;;32.86;32.58;99436.91;5099875;28;20058;-86
2022/07/18 02:37:41;;;;;;;3.60;2.50;;;;;;;32.84;32.67;99435.38;5077725;28;20024;-85
2022/07/18 02:40:10;;;;;;;2.75;2.35;;;;;;;32.85;32.75;99437.06;5097311;28;20028;-85
2022/07/18 02:42:36;;;;;;;3.20;2.45;;;;;;;32.82;32.52;99438.25;5096083;28;20355;-84
2022/07/18 02:45:07;;;;;;;3.00;2.40;;;;;;;32.84;32.40;99436.25;5078142;28;20028;-84
2022/07/18 02:47:33;;;;;;;3.55;2.70;;;;;;;32.82;32.57;99440.97;5077140;28;20066;-86
2022/07/18 02:49:58;;;;;;;4.78;3.05;;;;;;;32.83;32.62;99439.97;5095080;28;20066;-84
2022/07/18 02:52:24;;;;;;;3.10;2.20;;;;;;;32.80;32.53;99432.19;5095376;28;20024;-83
2022/07/18 02:54:50;;;;;;;3.78;2.63;;;;;;;32.79;32.59;99439.44;5095620;28;20024;-86
2022/07/18 02:57:15;;;;;;;3.50;2.40;;;;;;;32.79;32.71;99438.63;5077475;28;20047;-86
2022/07/18 02:59:41;;;;;;;3.55;2.55;;;;;;;32.78;32.63;99450.44;5077235;28;20028;-84
2022/07/18 03:02:36;;;;;;;4.80;2.70;;;;;;;32.76;32.81;99433.53;5082774;28;20093;-84
2022/07/18 03:05:03;;;;;;;3.75;2.60;;;;;;;32.75;32.76;99442.66;5084164;28;20024;-84
2022/07/18 03:07:29;;;;;;;4.35;2.85;;;;;;;32.76;32.63;99444.34;5079060;28;20035;-85
2022/07/18 03:09:55;;;;;;;3.15;2.30;;;;;;;32.75;32.81;99445.38;5113507;28;20028;-84
2022/07/18 03:12:21;;;;;;;3.35;2.40;;;;;;;32.73;32.76;99439.31;5078772;28;20081;-84
2022/07/18 03:14:47;;;;;;;4.20;2.58;;;;;;;32.71;32.73;99447.56;5095709;28;20020;-84
2022/07/18 03:17:12;;;;;;;4.57;2.63;;;;;;;32.72;32.99;99443.03;5077207;28;20372;-84
2022/07/18 03:19:38;;;;;;;4.50;2.92;;;;;;;32.71;32.79;99430.50;5077514;28;20441;-86
2022/07/18 03:22:05;;;;;;;3.58;2.58;;;;;;;32.68;32.73;99437.97;5076998;28;20043;-84
2022/07/18 03:24:31;;;;;;;3.58;2.58;;;;;;;32.70;32.83;99440.50;5077168;28;20020;-84
2022/07/18 03:26:56;;;;;;;4.00;2.35;;;;;;;32.66;32.75;99434.59;5076925;28;20030;-83
2022/07/18 03:29:22;;;;;;;3.58;2.40;;;;;;;32.65;32.90;99435.63;5077267;28;20115;-85
2022/07/18 03:31:48;;;;;;;3.50;2.53;;;;;;;32.67;33.01;99422.78;5076872;28;20110;-85
2022/07/18 03:34:14;;;;;;;3.90;2.50;;;;;;;32.65;33.03;99432.91;5110734;28;20492;-84
2022/07/18 03:36:40;;;;;;;2.78;2.25;;;;;;;32.62;33.04;99426.97;5077221;28;20038;-84
2022/07/18 03:39:07;;;;;;;4.38;3.22;;;;;;;32.62;32.85;99432.38;5077121;28;20036;-86
2022/07/18 03:41:32;;;;;;;2.95;2.55;;;;;;;32.60;32.94;99429.88;5076722;28;20380;-84
2022/07/18 03:43:58;;;;;;;3.17;2.53;;;;;;;32.59;33.03;99433.59;5094588;28;20107;-83
2022/07/18 03:46:24;;;;;;;3.10;2.35;;;;;;;32.61;33.10;99431.56;5077259;28;20048;-87
2022/07/18 03:48:50;;;;;;;3.05;2.30;;;;;;;32.59;32.84;99421.94;5077757;28;20072;-85
2022/07/18 03:51:16;;;;;;;4.95;2.63;;;;;;;32.58;32.99;99417.56;5089539;28;20020;-86
2022/07/18 03:53:41;;;;;;;3.58;2.85;;;;;;;32.57;33.07;99429.38;5090567;28;20028;-85
2022/07/18 03:56:07;;;;;;;4.10;2.50;;;;;;;32.53;32.89;99418.06;5079214;28;20024;-86
2022/07/18 03:58:33;;;;;;;2.95;2.40;;;;;;;32.52;33.01;99416.38;5077509;28;20028;-84
2022/07/18 04:00:59;;;;;;;3.47;2.60;;;;;;;32.51;33.24;99426.34;5077462;28;20032;-84
2022/07/18 04:03:24;;;;;;;3.88;2.58;;;;;;;32.52;33.20;99424.47;5094539;28;20034;-85
2022/07/18 04:05:50;;;;;;;4.10;2.90;;;;;;;32.48;33.19;99418.56;5077030;28;20435;-85
2022/07/18 04:08:16;;;;;;;3.58;2.50;;;;;;;32.51;33.19;99417.41;5110434;28;20434;-85
2022/07/18 04:10:43;;;;;;;3.78;2.50;;;;;;;32.49;33.08;99422.13;5094770;28;20058;-84
2022/07/18 04:13:08;;;;;;;3.22;2.50;;;;;;;32.48;33.15;99420.44;5076801;28;20496;-85
2022/07/18 04:15:35;;;;;;;3.72;2.67;;;;;;;32.47;33.16;99430.41;5096987;28;20051;-85
2022/07/18 04:18:00;;;;;;;3.55;2.60;;;;;;;32.44;33.04;99429.91;5080848;28;20339;-85
2022/07/18 04:20:26;;;;;;;3.55;2.67;;;;;;;32.44;33.33;99424.50;5080205;28;20058;-85
2022/07/18 04:22:53;;;;;;;3.05;2.42;;;;;;;32.43;33.20;99428.22;5080584;28;20400;-84
2022/07/18 04:25:22;;;;;;;3.13;2.40;;;;;;;32.42;33.30;99419.25;5098189;28;20031;-86
2022/07/18 04:27:49;;;;;;;3.35;2.70;;;;;;;32.38;33.02;99426.84;5079983;28;20381;-84
2022/07/18 04:30:17;;;;;;;4.20;2.83;;;;;;;32.38;33.22;99420.56;5098146;28;20051;-85
2022/07/18 04:32:43;;;;;;;3.70;2.60;;;;;;;32.36;33.23;99417.22;5082905;28;20039;-85
2022/07/18 04:35:09;;;;;;;3.55;2.63;;;;;;;32.32;33.42;99416.72;5087226;28;20020;-85
2022/07/18 04:37:35;;;;;;;3.30;2.58;;;;;;;32.33;33.41;99415.69;5089375;28;20039;-86
2022/07/18 04:40:02;;;;;;;4.38;2.60;;;;;;;32.30;33.37;99418.75;5087025;28;20376;-83
2022/07/18 04:42:28;;;;;;;4.63;2.90;;;;;;;32.27;33.49;99424.47;5087244;28;20389;-84
2022/07/18 04:44:53;;;;;;;3.78;2.80;;;;;;;32.28;33.40;99423.47;5080647;28;20028;-85
2022/07/18 04:47:19;;;;;;;3.53;2.72;;;;;;;32.30;33.39;99424.16;5079798;28;20063;-84
2022/07/18 04:49:45;;;;;;;5.55;3.10;;;;;;;32.30;33.56;99418.75;5080091;28;20501;-84
2022/07/18 04:52:10;;;;;;;3.53;2.67;;;;;;;32.30;33.34;99418.75;5097318;28;20028;-84
2022/07/18 04:54:36;;;;;;;3.60;2.83;;;;;;;32.27;33.55;99408.28;5097512;28;20028;-84
2022/07/18 04:57:01;;;;;;;5.70;2.78;;;;;;;32.27;33.54;99421.78;5079479;28;20024;-83
2022/07/18 04:59:27;;;;;;;3.30;2.47;;;;;;;32.27;33.65;99413.69;5079234;28;20032;-85
2022/07/18 05:01:52;;;;;;;3.97;2.95;;;;;;;32.27;33.46;99413.69;5079505;28;20044;-85
2022/07/18 05:04:18;;;;;;;3.78;2.70;;;;;;;32.25;33.49;99415.72;5097633;28;20446;-84
2022/07/18 05:06:43;;;;;;;3.78;2.90;;;;;;;32.23;33.70;99428.50;5098617;28;20036;-84
2022/07/18 05:09:09;;;;;;;4.93;2.83;;;;;;;32.23;33.56;99420.41;5099135;28;20070;-83
2022/07/18 05:11:35;;;;;;;3.08;2.60;;;;;;;32.22;33.56;99421.44;5079062;28;20027;-86
2022/07/18 05:14:01;;;;;;;4.07;2.70;;;;;;;32.20;33.60;99423.47;5079021;28;20048;-84
2022/07/18 05:16:26;;;;;;;5.15;2.70;;;;;;;32.20;33.70;99428.88;5079132;28;20059;-84
2022/07/18 05:18:52;;;;;;;3.63;2.75;;;;;;;32.20;33.80;99428.88;5079087;28;20024;-84
2022/07/18 05:21:17;;;;;;;3.80;3.00;;;;;;;32.20;33.74;99429.69;5096775;28;20024;-84
2022/07/18 05:23:45;;;;;;;3.30;2.70;;;;;;;32.21;33.60;99430.56;5097262;28;20035;-86
2022/07/18 05:26:11;;;;;;;3.40;2.50;;;;;;;32.20;33.62;99429.69;5095517;28;20027;-83
2022/07/18 05:28:37;;;;;;;4.45;2.75;;;;;;;32.21;33.80;99419.75;5102412;28;20031;-86
2022/07/18 05:31:03;;;;;;;3.15;2.50;;;;;;;32.20;33.83;99418.06;5084352;28;20055;-86
2022/07/18 05:33:28;;;;;;;3.63;2.60;;;;;;;32.20;33.70;99423.47;5079643;28;20038;-85
2022/07/18 05:35:54;;;;;;;4.57;2.83;;;;;;;32.18;33.86;99417.38;5082012;28;20372;-87
2022/07/18 05:38:20;;;;;;;3.05;2.45;;;;;;;32.17;33.75;99419.25;5109486;28;20012;-87
2022/07/18 05:40:45;;;;;;;3.60;2.72;;;;;;;32.18;33.95;99422.78;5096827;28;20032;-84
2022/07/18 05:43:11;;;;;;;3.47;2.85;;;;;;;32.19;33.96;99417.22;5112121;28;20056;-84
2022/07/18 05:45:36;;;;;;;3.45;2.78;;;;;;;32.21;33.81;99425.16;5078279;28;20024;-83
2022/07/18 05:48:02;;;;;;;3.67;2.65;;;;;;;32.21;33.81;99419.75;5096081;28;20031;-83
2022/07/18 05:50:28;;;;;;;4.38;2.90;;;;;;;32.22;33.59;99421.44;5096409;28;20373;-84
2022/07/18 05:52:54;;;;;;;4.20;2.95;;;;;;;32.23;34.01;99423.13;5096046;28;20023;-84
2022/07/18 05:55:20;;;;;;;3.50;2.75;;;;;;;32.22;33.85;99416.91;5096086;28;20446;-83
2022/07/18 05:57:45;;;;;;;3.90;2.80;;;;;;;32.21;33.79;99417.06;5096092;28;20024;-83
2022/07/18 06:00:11;;;;;;;3.88;2.90;;;;;;;32.23;34.02;99417.72;5096734;28;20028;-83
2022/07/18 06:02:37;;;;;;;4.07;2.85;;;;;;;32.23;34.01;99417.72;5095956;28;20020;-83
2022/07/18 06:05:05;;;;;;;3.78;2.55;;;;;;;32.23;33.90;99417.72;5095820;28;20031;-83
2022/07/18 06:07:30;;;;;;;4.60;3.05;;;;;;;32.22;33.81;99416.91;5095715;28;20089;-84
2022/07/18 06:09:56;;;;;;;3.78;2.72;;;;;;;32.22;33.84;99425.00;5096056;28;20446;-84
2022/07/18 06:12:22;;;;;;;3.97;2.97;;;;;;;32.20;33.93;99420.78;5101749;28;20074;-84
2022/07/18 06:14:48;;;;;;;4.07;2.80;;;;;;;32.20;33.99;99416.19;5078277;28;20023;-85
2022/07/18 06:17:13;;;;;;;3.90;2.90;;;;;;;32.21;33.97;99425.16;5118185;28;20062;-85
2022/07/18 06:19:41;;;;;;;4.07;2.80;;;;;;;32.21;33.92;99426.00;5081265;28;20486;-85
2022/07/18 06:22:07;;;;;;;4.35;2.65;;;;;;;32.23;34.04;99428.50;5078033;28;20093;-85
2022/07/18 06:24:33;;;;;;;3.45;2.67;;;;;;;32.24;34.06;99428.34;5077783;28;20115;-85
2022/07/18 06:26:58;;;;;;;4.25;2.90;;;;;;;32.25;34.08;99426.50;5077784;28;20119;-83
2022/07/18 06:29:24;;;;;;;4.05;2.78;;;;;;;32.26;34.15;99429.00;5077855;28;20173;-85
2022/07/18 06:31:49;;;;;;;3.35;2.53;;;;;;;32.26;34.28;99434.41;5078753;28;20031;-83
2022/07/18 06:34:15;;;;;;;3.70;2.70;;;;;;;32.28;34.32;99428.84;5097581;28;20034;-85
2022/07/18 06:36:40;;;;;;;4.22;3.20;;;;;;;32.29;33.90;99433.25;5080954;28;20027;-82
2022/07/18 06:39:10;;;;;;;3.83;2.78;;;;;;;32.29;33.99;99433.25;5083459;28;20028;-85
2022/07/18 06:41:40;;;;;;;5.10;2.95;;;;;;;32.31;33.99;99430.38;5083464;28;20043;-86
2022/07/18 06:44:06;;;;;;;3.97;3.03;;;;;;;32.31;34.12;99431.22;5117461;28;20024;-87
2022/07/18 06:46:32;;;;;;;3.30;2.70;;;;;;;32.33;33.94;99440.00;5078210;28;20024;-83
2022/07/18 06:48:57;;;;;;;3.53;2.80;;;;;;;32.34;34.00;99430.88;5095118;28;20028;-84
2022/07/18 06:51:24;;;;;;;4.13;2.92;;;;;;;32.35;34.08;99432.56;5077336;28;20098;-84
2022/07/18 06:53:51;;;;;;;3.92;2.70;;;;;;;32.35;34.09;99437.13;5095354;28;20411;-84
2022/07/18 06:56:16;;;;;;;4.45;2.97;;;;;;;32.36;34.11;99439.66;5095300;28;20138;-85
2022/07/18 06:58:42;;;;;;;4.63;3.10;;;;;;;32.36;34.19;99436.97;5077337;28;20465;-86
2022/07/18 07:01:08;;;;;;;5.85;3.05;;;;;;;32.38;34.04;99437.63;5095691;28;20027;-85
2022/07/18 07:03:33;;;;;;;3.85;2.80;;;;;;;32.40;34.06;99435.63;5100034;28;20043;-83
2022/07/18 07:05:59;;;;;;;4.50;3.03;;;;;;;32.40;33.97;99443.72;5081612;28;20196;-84
2022/07/18 07:08:25;;;;;;;3.65;2.75;;;;;;;32.42;33.97;99432.75;5078444;28;20024;-84
2022/07/18 07:10:50;;;;;;;3.40;2.65;;;;;;;32.42;33.97;99421.97;5077606;28;20118;-84
2022/07/18 07:13:16;;;;;;;4.43;2.97;;;;;;;32.45;33.78;99428.88;5077620;28;20035;-84
2022/07/18 07:15:42;;;;;;;5.53;3.17;;;;;;;32.45;33.84;99431.59;5077329;28;20062;-86
2022/07/18 07:18:08;;;;;;;4.47;3.10;;;;;;;32.47;33.61;99429.53;5077340;28;20103;-86
2022/07/18 07:20:34;;;;;;;3.97;2.90;;;;;;;32.49;33.93;99427.53;5076840;28;20418;-84
2022/07/18 07:23:04;;;;;;;4.00;2.90;;;;;;;32.51;33.70;99429.06;5111412;28;20059;-84
2022/07/18 07:25:30;;;;;;;4.22;3.08;;;;;;;32.53;33.82;99431.56;5095717;28;20120;-84
2022/07/18 07:27:56;;;;;;;4.00;2.90;;;;;;;32.54;33.87;99430.56;5112086;28;20114;-84
2022/07/18 07:30:22;;;;;;;5.13;3.10;;;;;;;32.57;33.56;99422.09;5095470;28;20461;-85
2022/07/18 07:32:47;;;;;;;5.43;3.47;;;;;;;32.57;33.73;99423.97;5077044;28;20031;-84
2022/07/18 07:35:15;;;;;;;4.18;3.10;;;;;;;32.59;33.74;99427.34;5094835;28;20020;-84
2022/07/18 07:37:44;;;;;;;4.03;3.03;;;;;;;32.60;33.45;99429.88;5094813;28;20023;-84
2022/07/18 07:40:10;;;;;;;4.50;3.00;;;;;;;32.62;33.73;99433.25;5110769;28;20024;-85
2022/07/18 07:42:36;;;;;;;3.63;2.75;;;;;;;32.63;33.65;99429.53;5076575;28;20048;-85
2022/07/18 07:45:03;;;;;;;4.70;3.05;;;;;;;32.65;33.70;99437.47;5094902;28;20024;-85
2022/07/18 07:47:29;;;;;;;4.22;2.75;;;;;;;32.67;33.59;99440.81;5076956;28;20035;-84
2022/07/18 07:49:56;;;;;;;4.63;2.83;;;;;;;32.68;33.51;99434.44;5081766;28;20020;-83
2022/07/18 07:52:23;;;;;;;4.50;3.13;;;;;;;32.70;33.35;99428.84;5088118;28;20119;-85
2022/07/18 07:54:48;;;;;;;4.35;3.10;;;;;;;32.72;33.40;99426.81;5085359;28;20024;-84
2022/07/18 07:57:14;;;;;;;4.47;2.97;;;;;;;32.72;33.44;99430.34;5100412;28;20054;-85
2022/07/18 07:59:39;;;;;;;5.95;3.17;;;;;;;32.74;33.59;99431.03;5098668;28;20024;-85
2022/07/18 08:02:05;;;;;;;3.13;2.75;;;;;;;32.76;33.45;99422.75;5098889;28;20039;-85
2022/07/18 08:04:31;;;;;;;3.83;2.70;;;;;;;32.80;33.53;99432.19;5080454;28;20028;-85
2022/07/18 08:06:56;;;;;;;5.40;3.10;;;;;;;32.82;33.55;99427.44;5098433;28;20031;-84
2022/07/18 08:09:22;;;;;;;3.95;2.83;;;;;;;32.86;33.45;99427.94;5098443;28;20032;-84
2022/07/18 08:11:48;;;;;;;4.03;2.80;;;;;;;32.87;33.53;99419.66;5098530;28;20039;-84
2022/07/18 08:14:14;;;;;;;3.47;2.83;;;;;;;32.89;33.14;99420.34;5098188;28;20449;-86
2022/07/18 08:16:40;;;;;;;3.47;2.83;;;;;;;32.93;33.38;99418.97;5080129;28;20097;-84
2022/07/18 08:19:06;;;;;;;4.15;2.90;;;;;;;32.94;33.57;99423.34;5079995;28;20028;-84
2022/07/18 08:21:32;;;;;;;4.20;2.85;;;;;;;32.98;33.39;99423.06;5097924;28;20102;-83
2022/07/18 08:23:57;;;;;;;4.60;3.00;;;;;;;33.01;33.46;99420.00;5079802;28;20127;-84
2022/07/18 08:26:23;;;;;;;4.80;2.55;;;;;;;33.03;33.40;99407.97;5079961;28;20024;-84
2022/07/18 08:28:49;;;;;;;4.22;2.80;;;;;;;33.05;33.27;99411.38;5097756;28;20035;-86
2022/07/18 08:31:14;;;;;;;5.03;3.13;;;;;;;33.10;33.26;99408.13;5080274;28;20111;-85
2022/07/18 08:33:40;;;;;;;4.00;3.03;;;;;;;33.13;33.56;99402.41;5098827;28;20497;-85
2022/07/18 08:36:08;;;;;;;3.63;2.90;;;;;;;33.15;33.36;99415.72;5099631;28;20591;-86
2022/07/18 08:38:34;;;;;;;3.50;2.75;;;;;;;33.20;33.37;99407.91;5103055;28;20099;-86
2022/07/18 08:41:06;;;;;;;4.38;2.75;;;;;;;33.21;33.17;99415.88;5088250;28;20051;-86
2022/07/18 08:43:32;;;;;;;5.10;2.80;;;;;;;33.24;33.39;99411.09;5087362;28;20036;-87
2022/07/18 08:46:05;;;;;;;4.38;2.80;;;;;;;33.27;33.10;99400.81;5064361;28;20127;-88
2022/07/18 08:48:32;;;;;;;3.85;2.65;;;;;;;33.28;33.05;99405.19;5082369;28;20032;-88
2022/07/18 08:50:59;;;;;;;3.85;2.60;;;;;;;33.33;32.92;99407.34;5061452;28;20055;-84
2022/07/18 08:53:25;;;;;;;3.35;2.72;;;;;;;33.34;32.90;99403.63;5077222;28;20024;-86
2022/07/18 08:55:53;;;;;;;5.63;3.00;;;;;;;33.37;32.95;99414.09;5059749;28;20451;-85
2022/07/18 08:58:19;;;;;;;4.95;2.90;;;;;;;33.39;32.75;99412.06;5059676;28;20032;-85
2022/07/18 09:00:45;;;;;;;4.20;2.42;;;;;;;33.41;32.75;99410.00;5059212;28;20055;-84
2022/07/18 09:03:11;;;;;;;4.32;2.60;;;;;;;33.44;32.44;99406.97;5059221;28;20028;-85
2022/07/18 09:05:37;;;;;;;4.00;2.58;;;;;;;33.45;32.50;99411.34;5059203;28;20029;-84
2022/07/18 09:08:19;;;;;;;4.90;2.83;;;;;;;33.45;32.36;99422.16;5076878;28;20028;-85
2022/07/18 09:10:59;;;;;;;2.97;2.20;;;;;;;33.48;32.57;99419.13;5059188;28;20039;-86
2022/07/18 09:13:36;;;;;;;5.22;3.03;;;;;;;33.50;32.59;99410.81;5072802;28;20032;-87
2022/07/18 09:16:10;;;;;;;4.05;2.67;;;;;;;33.52;32.40;99418.78;5064016;28;20066;-84
2022/07/18 09:18:41;;;;;;;3.80;2.83;;;;;;;33.54;32.52;99414.06;5077173;28;20043;-84
2022/07/18 09:21:18;;;;;;;4.28;2.67;;;;;;;33.57;32.38;99413.69;5058893;28;20032;-85
2022/07/18 09:23:48;;;;;;;4.05;2.47;;;;;;;33.59;32.32;99417.03;5059088;28;20031;-85
2022/07/18 09:26:36;;;;;;;5.72;2.67;;;;;;;33.60;32.44;99422.28;5076908;28;20024;-86
2022/07/18 09:29:03;;;;;;;4.10;2.70;;;;;;;33.63;32.04;99412.13;5063004;28;20106;-86
2022/07/18 09:31:29;;;;;;;3.67;2.70;;;;;;;33.64;32.10;99409.22;5062217;28;20036;-87
2022/07/18 09:33:57;;;;;;;4.90;2.50;;;;;;;33.65;32.02;99416.31;5079688;28;20362;-86
2022/07/18 09:36:23;;;;;;;3.63;2.47;;;;;;;33.68;32.11;99418.69;5058772;28;20056;-85
2022/07/18 09:38:49;;;;;;;3.55;2.30;;;;;;;33.69;31.88;99428.47;5058871;28;20351;-85
2022/07/18 09:41:15;;;;;;;3.47;2.45;;;;;;;33.72;32.22;99428.13;5059591;28;20058;-87
2022/07/18 09:43:41;;;;;;;3.55;2.70;;;;;;;33.73;31.99;99420.84;5078098;28;20028;-85
2022/07/18 09:46:07;;;;;;;4.78;2.70;;;;;;;33.76;32.16;99425.91;5078517;28;20034;-85
2022/07/18 09:48:34;;;;;;;3.92;2.53;;;;;;;33.78;31.65;99420.31;5096447;28;20334;-85
2022/07/18 09:51:03;;;;;;;3.42;2.20;;;;;;;33.79;31.83;99422.00;5078860;28;20117;-85
2022/07/18 09:53:42;;;;;;;4.63;2.67;;;;;;;33.80;32.05;99415.56;5078558;28;20373;-84
2022/07/18 09:56:10;;;;;;;4.30;2.50;;;;;;;33.81;31.76;99409.13;5096296;28;20103;-84
2022/07/18 09:58:37;;;;;;;6.18;2.88;;;;;;;33.82;32.00;99403.53;5078183;28;20024;-82
2022/07/18 10:01:05;;;;;;;3.30;2.35;;;;;;;33.85;31.72;99410.47;5096094;28;20027;-87
2022/07/18 10:03:32;;;;;;;4.07;2.65;;;;;;;33.87;31.82;99405.69;5095989;28;20028;-85
2022/07/18 10:05:59;;;;;;;4.03;2.63;;;;;;;33.88;31.84;99404.66;5078207;28;20028;-85
2022/07/18 10:08:28;;;;;;;3.58;2.72;;;;;;;33.91;31.70;99404.31;5078668;28;20485;-87
2022/07/18 10:10:59;;;;;;;4.20;2.67;;;;;;;33.93;31.95;99414.97;5095950;28;20024;-88
2022/07/18 10:13:26;;;;;;;4.63;2.42;;;;;;;33.94;31.61;99409.34;5111259;28;20063;-84
2022/07/18 10:15:52;;;;;;;3.45;2.20;;;;;;;33.97;31.25;99413.56;5098954;28;20016;-86
2022/07/18 10:18:24;;;;;;;5.28;2.63;;;;;;;33.99;31.64;99416.94;5100611;28;20024;-86
2022/07/18 10:20:56;;;;;;;4.07;2.53;;;;;;;34.00;31.23;99419.44;5112172;28;20028;-85
2022/07/18 10:23:26;;;;;;;3.28;2.42;;;;;;;34.01;31.90;99413.03;5079072;28;20016;-85
2022/07/18 10:26:15;;;;;;;3.78;2.60;;;;;;;34.04;31.78;99416.41;5111386;28;20024;-85
2022/07/18 10:28:56;;;;;;;3.10;2.20;;;;;;;34.06;31.87;99412.53;5077655;28;20028;-84
2022/07/18 10:31:22;;;;;;;3.70;2.60;;;;;;;34.06;31.43;99407.09;5077958;28;20038;-84
2022/07/18 10:33:49;;;;;;;4.50;2.40;;;;;;;34.08;31.66;99409.63;5078760;28;20020;-85
2022/07/18 10:36:16;;;;;;;4.32;2.22;;;;;;;34.09;31.40;99395.91;5077707;28;20028;-84
2022/07/18 10:39:14;;;;;;;3.17;2.33;;;;;;;34.12;31.66;99400.09;5095763;28;20091;-86
2022/07/18 10:41:42;;;;;;;6.05;2.47;;;;;;;34.13;31.29;99402.63;5111436;28;20047;-86
2022/07/18 10:44:23;;;;;;;3.33;2.53;;;;;;;34.16;31.36;99396.03;5111940;28;20357;-84
2022/07/18 10:49:52;;;;;;;2.80;2.22;;;;;;;34.20;31.48;99401.91;5098687;28;20047;-86
2022/07/18 10:52:30;;;;;;;3.97;2.75;;;;;;;34.20;31.49;99397.34;5114775;28;20032;-87
2022/07/18 10:55:05;;;;;;;3.33;2.30;;;;;;;34.22;31.35;99392.56;5116913;28;20020;-88
2022/07/18 10:57:39;;;;;;;3.75;2.20;;;;;;;34.24;31.07;99390.50;5101699;28;20016;-85
2022/07/18 11:00:08;;;;;;;3.60;2.10;;;;;;;34.26;31.56;99391.19;5077640;28;20039;-86
2022/07/18 11:02:38;;;;;;;4.57;2.65;;;;;;;34.27;30.91;99379.34;5114152;28;20373;-85
2022/07/18 11:05:24;;;;;;;4.28;2.30;;;;;;;34.30;31.25;99372.72;5100080;28;20046;-85
2022/07/18 11:07:59;;;;;;;3.83;2.50;;;;;;;34.32;31.41;99383.38;5081718;28;20040;-85
2022/07/18 11:10:50;;;;;;;3.33;2.50;;;;;;;34.36;31.39;99387.38;5112066;28;20442;-87
2022/07/18 11:13:37;;;;;;;3.50;2.25;;;;;;;34.37;31.23;99375.53;5086318;28;20093;-86
2022/07/18 11:16:21;;;;;;;3.50;2.33;;;;;;;34.39;31.29;99384.31;5076960;28;20469;-84
2022/07/18 11:18:47;;;;;;;4.78;2.58;;;;;;;34.40;30.84;99385.97;5076707;28;20120;-86
2022/07/18 11:21:19;;;;;;;3.42;2.30;;;;;;;34.43;31.16;99385.63;5095026;28;20027;-85
2022/07/18 11:23:51;;;;;;;3.22;2.38;;;;;;;34.44;31.00;99376.47;5096269;28;20099;-87
2022/07/18 11:26:22;;;;;;;4.68;2.40;;;;;;;34.46;30.77;99366.28;5080896;28;20373;-84
2022/07/18 11:28:49;;;;;;;3.38;2.25;;;;;;;34.47;31.04;99376.06;5098984;28;20024;-85
2022/07/18 11:31:18;;;;;;;3.72;2.55;;;;;;;34.49;30.74;99374.03;5115084;28;20047;-87
2022/07/18 11:33:49;;;;;;;3.25;2.40;;;;;;;34.51;30.75;99360.28;5081162;28;20027;-84
2022/07/18 11:36:17;;;;;;;4.75;2.78;;;;;;;34.52;30.85;99360.09;5080917;28;20381;-83
2022/07/18 11:39:03;;;;;;;3.92;2.60;;;;;;;34.53;31.14;99359.06;5098678;28;20148;-86
2022/07/18 11:41:29;;;;;;;4.63;2.80;;;;;;;34.56;30.19;99360.56;5080567;28;20055;-84